sensor_id;sensor_type;location;lat;lon;timestamp;P1;durP1;ratioP1;P2;durP2;ratioP2
53391;SDS011;41667;51.922;8.850;2023-05-16T00:02:04;14.75;;;9.13;;
53391;SDS011;41667;51.922;8.850;2023-05-16T00:04:30;13.57;;;9.65;;
53391;SDS011;41667;51.922;8.850;2023-05-16T00:06:56;16.95;;;10.15;;
53391;SDS011;41667;51.922;8.850;2023-05-16T00:09:22;18.43;;;9.50;;
53391;SDS011;41667;51.922;8.850;2023-05-16T00:11:47;13.18;;;8.65;;
53391;SDS011;41667;51.922;8.850;2023-05-16T00:14:12;17.88;;;9.15;;
53391;SDS011;41667;51.922;8.850;2023-05-16T00:16:38;16.23;;;9.27;;
53391;SDS011;41667;51.922;8.850;2023-05-16T00:19:05;15.25;;;9.57;;
53391;SDS011;41667;51.922;8.850;2023-05-16T00:21:31;11.98;;;8.63;;
53391;SDS011;41667;51.922;8.850;2023-05-16T00:23:56;15.70;;;8.30;;
53391;SDS011;41667;51.922;8.850;2023-05-16T00:26:21;15.40;;;8.60;;
53391;SDS011;41667;51.922;8.850;2023-05-16T00:28:46;14.95;;;8.90;;
53391;SDS011;41667;51.922;8.850;2023-05-16T00:31:11;10.47;;;8.03;;
53391;SDS011;41667;51.922;8.850;2023-05-16T00:33:36;15.73;;;8.00;;
53391;SDS011;41667;51.922;8.850;2023-05-16T00:36:02;14.17;;;8.40;;
53391;SDS011;41667;51.922;8.850;2023-05-16T00:38:27;13.13;;;8.68;;
53391;SDS011;41667;51.922;8.850;2023-05-16T00:40:52;10.13;;;6.47;;
53391;SDS011;41667;51.922;8.850;2023-05-16T00:43:17;13.63;;;7.55;;
53391;SDS011;41667;51.922;8.850;2023-05-16T00:45:42;15.70;;;7.47;;
53391;SDS011;41667;51.922;8.850;2023-05-16T00:48:08;12.25;;;7.13;;
53391;SDS011;41667;51.922;8.850;2023-05-16T00:50:33;17.88;;;8.18;;
53391;SDS011;41667;51.922;8.850;2023-05-16T00:52:58;12.05;;;7.53;;
53391;SDS011;41667;51.922;8.850;2023-05-16T00:55:24;13.95;;;7.57;;
53391;SDS011;41667;51.922;8.850;2023-05-16T00:57:49;11.73;;;6.93;;
53391;SDS011;41667;51.922;8.850;2023-05-16T01:00:14;11.45;;;7.45;;
53391;SDS011;41667;51.922;8.850;2023-05-16T01:02:40;12.18;;;7.07;;
53391;SDS011;41667;51.922;8.850;2023-05-16T01:05:05;13.88;;;8.60;;
53391;SDS011;41667;51.922;8.850;2023-05-16T01:07:32;11.63;;;7.82;;
53391;SDS011;41667;51.922;8.850;2023-05-16T01:09:57;11.30;;;6.63;;
53391;SDS011;41667;51.922;8.850;2023-05-16T01:12:26;13.27;;;6.97;;
53391;SDS011;41667;51.922;8.850;2023-05-16T01:17:20;10.85;;;7.07;;
53391;SDS011;41667;51.922;8.850;2023-05-16T01:22:19;9.80;;;6.20;;
53391;SDS011;41667;51.922;8.850;2023-05-16T01:25:01;9.50;;;6.22;;
53391;SDS011;41667;51.922;8.850;2023-05-16T01:27:29;12.23;;;6.45;;
53391;SDS011;41667;51.922;8.850;2023-05-16T01:29:55;8.32;;;5.97;;
53391;SDS011;41667;51.922;8.850;2023-05-16T01:32:20;10.25;;;7.15;;
53391;SDS011;41667;51.922;8.850;2023-05-16T01:34:46;10.75;;;6.10;;
53391;SDS011;41667;51.922;8.850;2023-05-16T01:37:14;12.77;;;7.13;;
53391;SDS011;41667;51.922;8.850;2023-05-16T01:39:44;12.98;;;7.55;;
53391;SDS011;41667;51.922;8.850;2023-05-16T01:42:14;9.10;;;6.00;;
53391;SDS011;41667;51.922;8.850;2023-05-16T01:44:40;10.13;;;5.82;;
53391;SDS011;41667;51.922;8.850;2023-05-16T01:47:08;8.80;;;6.15;;
53391;SDS011;41667;51.922;8.850;2023-05-16T01:49:35;9.02;;;5.47;;
53391;SDS011;41667;51.922;8.850;2023-05-16T01:54:57;11.02;;;5.60;;
53391;SDS011;41667;51.922;8.850;2023-05-16T01:57:23;11.90;;;6.40;;
53391;SDS011;41667;51.922;8.850;2023-05-16T01:59:49;7.85;;;6.32;;
53391;SDS011;41667;51.922;8.850;2023-05-16T02:02:18;9.63;;;5.78;;
53391;SDS011;41667;51.922;8.850;2023-05-16T02:04:43;12.80;;;6.03;;
53391;SDS011;41667;51.922;8.850;2023-05-16T02:07:08;6.45;;;5.20;;
53391;SDS011;41667;51.922;8.850;2023-05-16T02:09:33;7.65;;;5.50;;
53391;SDS011;41667;51.922;8.850;2023-05-16T02:11:59;5.85;;;4.80;;
53391;SDS011;41667;51.922;8.850;2023-05-16T02:14:24;6.82;;;5.15;;
53391;SDS011;41667;51.922;8.850;2023-05-16T02:16:49;6.78;;;4.45;;
53391;SDS011;41667;51.922;8.850;2023-05-16T02:19:15;7.60;;;4.77;;
53391;SDS011;41667;51.922;8.850;2023-05-16T02:21:40;6.70;;;4.93;;
53391;SDS011;41667;51.922;8.850;2023-05-16T02:24:05;7.13;;;5.13;;
53391;SDS011;41667;51.922;8.850;2023-05-16T02:26:30;6.17;;;4.63;;
53391;SDS011;41667;51.922;8.850;2023-05-16T02:28:55;8.02;;;4.88;;
53391;SDS011;41667;51.922;8.850;2023-05-16T02:31:27;9.82;;;4.47;;
53391;SDS011;41667;51.922;8.850;2023-05-16T02:33:52;5.25;;;4.18;;
53391;SDS011;41667;51.922;8.850;2023-05-16T02:36:17;6.60;;;4.40;;
53391;SDS011;41667;51.922;8.850;2023-05-16T02:38:42;5.10;;;3.88;;
53391;SDS011;41667;51.922;8.850;2023-05-16T02:41:07;5.82;;;4.07;;
53391;SDS011;41667;51.922;8.850;2023-05-16T02:43:33;5.43;;;4.63;;
53391;SDS011;41667;51.922;8.850;2023-05-16T02:45:58;8.07;;;4.20;;
53391;SDS011;41667;51.922;8.850;2023-05-16T02:48:23;5.95;;;4.32;;
53391;SDS011;41667;51.922;8.850;2023-05-16T02:50:48;4.65;;;3.85;;
53391;SDS011;41667;51.922;8.850;2023-05-16T02:53:13;7.93;;;3.77;;
53391;SDS011;41667;51.922;8.850;2023-05-16T02:55:39;4.45;;;3.53;;
53391;SDS011;41667;51.922;8.850;2023-05-16T02:58:04;4.80;;;3.75;;
53391;SDS011;41667;51.922;8.850;2023-05-16T03:00:29;11.15;;;4.28;;
53391;SDS011;41667;51.922;8.850;2023-05-16T03:02:54;4.53;;;3.50;;
53391;SDS011;41667;51.922;8.850;2023-05-16T03:05:19;8.93;;;4.13;;
53391;SDS011;41667;51.922;8.850;2023-05-16T03:07:44;5.37;;;4.03;;
53391;SDS011;41667;51.922;8.850;2023-05-16T03:10:09;5.80;;;4.03;;
53391;SDS011;41667;51.922;8.850;2023-05-16T03:12:35;7.68;;;3.60;;
53391;SDS011;41667;51.922;8.850;2023-05-16T03:15:00;6.93;;;4.03;;
53391;SDS011;41667;51.922;8.850;2023-05-16T03:17:25;4.55;;;3.38;;
53391;SDS011;41667;51.922;8.850;2023-05-16T03:19:51;6.43;;;4.20;;
53391;SDS011;41667;51.922;8.850;2023-05-16T03:22:16;3.65;;;3.25;;
53391;SDS011;41667;51.922;8.850;2023-05-16T03:24:41;8.77;;;3.45;;
53391;SDS011;41667;51.922;8.850;2023-05-16T03:27:06;5.47;;;3.47;;
53391;SDS011;41667;51.922;8.850;2023-05-16T03:29:32;10.20;;;3.30;;
53391;SDS011;41667;51.922;8.850;2023-05-16T03:31:57;6.30;;;3.00;;
53391;SDS011;41667;51.922;8.850;2023-05-16T03:34:22;4.53;;;2.90;;
53391;SDS011;41667;51.922;8.850;2023-05-16T03:36:48;4.57;;;2.85;;
53391;SDS011;41667;51.922;8.850;2023-05-16T03:39:13;3.97;;;3.43;;
53391;SDS011;41667;51.922;8.850;2023-05-16T03:41:39;6.15;;;3.25;;
53391;SDS011;41667;51.922;8.850;2023-05-16T03:44:04;5.32;;;2.95;;
53391;SDS011;41667;51.922;8.850;2023-05-16T03:46:29;8.73;;;2.72;;
53391;SDS011;41667;51.922;8.850;2023-05-16T03:48:55;4.87;;;2.90;;
53391;SDS011;41667;51.922;8.850;2023-05-16T03:51:20;6.85;;;2.72;;
53391;SDS011;41667;51.922;8.850;2023-05-16T03:53:45;5.22;;;3.00;;
53391;SDS011;41667;51.922;8.850;2023-05-16T03:56:10;9.07;;;3.65;;
53391;SDS011;41667;51.922;8.850;2023-05-16T03:58:35;7.83;;;3.10;;
53391;SDS011;41667;51.922;8.850;2023-05-16T04:01:01;6.38;;;2.97;;
53391;SDS011;41667;51.922;8.850;2023-05-16T04:03:26;8.80;;;3.45;;
53391;SDS011;41667;51.922;8.850;2023-05-16T04:05:55;6.53;;;2.72;;
53391;SDS011;41667;51.922;8.850;2023-05-16T04:08:21;7.05;;;2.42;;
53391;SDS011;41667;51.922;8.850;2023-05-16T04:10:46;3.05;;;2.22;;
53391;SDS011;41667;51.922;8.850;2023-05-16T04:13:11;4.57;;;2.60;;
53391;SDS011;41667;51.922;8.850;2023-05-16T04:15:36;4.70;;;2.55;;
53391;SDS011;41667;51.922;8.850;2023-05-16T04:18:01;7.68;;;2.45;;
53391;SDS011;41667;51.922;8.850;2023-05-16T04:20:27;6.72;;;2.67;;
53391;SDS011;41667;51.922;8.850;2023-05-16T04:22:52;10.00;;;2.67;;
53391;SDS011;41667;51.922;8.850;2023-05-16T04:25:17;10.65;;;3.03;;
53391;SDS011;41667;51.922;8.850;2023-05-16T04:27:42;2.63;;;2.40;;
53391;SDS011;41667;51.922;8.850;2023-05-16T04:30:07;10.07;;;2.40;;
53391;SDS011;41667;51.922;8.850;2023-05-16T04:32:33;8.45;;;1.95;;
53391;SDS011;41667;51.922;8.850;2023-05-16T04:35:00;10.77;;;2.00;;
53391;SDS011;41667;51.922;8.850;2023-05-16T04:37:25;13.07;;;4.13;;
53391;SDS011;41667;51.922;8.850;2023-05-16T04:39:51;7.65;;;2.58;;
53391;SDS011;41667;51.922;8.850;2023-05-16T04:42:18;2.72;;;1.95;;
53391;SDS011;41667;51.922;8.850;2023-05-16T04:44:43;10.27;;;2.88;;
53391;SDS011;41667;51.922;8.850;2023-05-16T04:47:08;11.52;;;2.72;;
53391;SDS011;41667;51.922;8.850;2023-05-16T04:49:33;4.95;;;2.05;;
53391;SDS011;41667;51.922;8.850;2023-05-16T04:51:58;8.02;;;2.70;;
53391;SDS011;41667;51.922;8.850;2023-05-16T04:54:24;7.93;;;2.97;;
53391;SDS011;41667;51.922;8.850;2023-05-16T04:56:50;7.43;;;1.92;;
53391;SDS011;41667;51.922;8.850;2023-05-16T04:59:15;11.95;;;3.97;;
53391;SDS011;41667;51.922;8.850;2023-05-16T05:01:40;8.23;;;2.33;;
53391;SDS011;41667;51.922;8.850;2023-05-16T05:04:05;7.80;;;2.38;;
53391;SDS011;41667;51.922;8.850;2023-05-16T05:06:30;8.32;;;2.17;;
53391;SDS011;41667;51.922;8.850;2023-05-16T05:08:56;7.65;;;3.03;;
53391;SDS011;41667;51.922;8.850;2023-05-16T05:11:21;5.55;;;2.05;;
53391;SDS011;41667;51.922;8.850;2023-05-16T05:13:47;13.35;;;2.67;;
53391;SDS011;41667;51.922;8.850;2023-05-16T05:16:12;5.75;;;2.55;;
53391;SDS011;41667;51.922;8.850;2023-05-16T05:18:37;7.32;;;1.98;;
53391;SDS011;41667;51.922;8.850;2023-05-16T05:21:02;9.20;;;3.00;;
53391;SDS011;41667;51.922;8.850;2023-05-16T05:23:27;9.10;;;2.07;;
53391;SDS011;41667;51.922;8.850;2023-05-16T05:25:53;12.47;;;2.73;;
53391;SDS011;41667;51.922;8.850;2023-05-16T05:28:18;8.32;;;2.17;;
53391;SDS011;41667;51.922;8.850;2023-05-16T05:30:43;7.93;;;2.03;;
53391;SDS011;41667;51.922;8.850;2023-05-16T05:33:09;14.93;;;2.25;;
53391;SDS011;41667;51.922;8.850;2023-05-16T05:35:35;8.30;;;2.00;;
53391;SDS011;41667;51.922;8.850;2023-05-16T05:38:00;17.15;;;2.75;;
53391;SDS011;41667;51.922;8.850;2023-05-16T05:40:25;6.70;;;1.75;;
53391;SDS011;41667;51.922;8.850;2023-05-16T05:42:50;3.67;;;2.17;;
53391;SDS011;41667;51.922;8.850;2023-05-16T05:45:16;11.02;;;2.28;;
53391;SDS011;41667;51.922;8.850;2023-05-16T05:47:41;13.27;;;2.63;;
53391;SDS011;41667;51.922;8.850;2023-05-16T05:50:07;11.10;;;2.35;;
53391;SDS011;41667;51.922;8.850;2023-05-16T05:52:32;9.45;;;1.77;;
53391;SDS011;41667;51.922;8.850;2023-05-16T05:54:57;10.35;;;2.47;;
53391;SDS011;41667;51.922;8.850;2023-05-16T05:57:23;4.75;;;1.70;;
53391;SDS011;41667;51.922;8.850;2023-05-16T05:59:49;9.90;;;1.83;;
53391;SDS011;41667;51.922;8.850;2023-05-16T06:02:14;9.75;;;2.33;;
53391;SDS011;41667;51.922;8.850;2023-05-16T06:04:39;10.48;;;2.13;;
53391;SDS011;41667;51.922;8.850;2023-05-16T06:07:06;5.28;;;1.60;;
53391;SDS011;41667;51.922;8.850;2023-05-16T06:09:31;12.02;;;2.15;;
53391;SDS011;41667;51.922;8.850;2023-05-16T06:11:56;10.90;;;1.83;;
53391;SDS011;41667;51.922;8.850;2023-05-16T06:14:22;7.57;;;2.13;;
53391;SDS011;41667;51.922;8.850;2023-05-16T06:16:47;6.03;;;1.73;;
53391;SDS011;41667;51.922;8.850;2023-05-16T06:19:12;10.00;;;2.43;;
53391;SDS011;41667;51.922;8.850;2023-05-16T06:21:39;9.55;;;2.20;;
53391;SDS011;41667;51.922;8.850;2023-05-16T06:24:05;5.97;;;1.33;;
53391;SDS011;41667;51.922;8.850;2023-05-16T06:26:30;7.13;;;1.80;;
53391;SDS011;41667;51.922;8.850;2023-05-16T06:28:55;8.93;;;1.95;;
53391;SDS011;41667;51.922;8.850;2023-05-16T06:31:20;7.82;;;2.17;;
53391;SDS011;41667;51.922;8.850;2023-05-16T06:33:45;10.77;;;2.10;;
53391;SDS011;41667;51.922;8.850;2023-05-16T06:36:11;4.38;;;1.50;;
53391;SDS011;41667;51.922;8.850;2023-05-16T06:38:36;12.27;;;2.30;;
53391;SDS011;41667;51.922;8.850;2023-05-16T06:41:01;5.32;;;1.40;;
53391;SDS011;41667;51.922;8.850;2023-05-16T06:43:26;9.32;;;1.95;;
53391;SDS011;41667;51.922;8.850;2023-05-16T06:45:51;10.87;;;2.10;;
53391;SDS011;41667;51.922;8.850;2023-05-16T06:48:17;6.30;;;1.67;;
53391;SDS011;41667;51.922;8.850;2023-05-16T06:50:45;10.98;;;1.65;;
53391;SDS011;41667;51.922;8.850;2023-05-16T06:53:10;6.55;;;1.40;;
53391;SDS011;41667;51.922;8.850;2023-05-16T06:55:36;8.37;;;1.80;;
53391;SDS011;41667;51.922;8.850;2023-05-16T06:58:01;9.05;;;1.80;;
53391;SDS011;41667;51.922;8.850;2023-05-16T07:00:26;14.93;;;1.73;;
53391;SDS011;41667;51.922;8.850;2023-05-16T07:02:51;10.57;;;1.33;;
53391;SDS011;41667;51.922;8.850;2023-05-16T07:05:17;8.18;;;1.40;;
53391;SDS011;41667;51.922;8.850;2023-05-16T07:07:42;14.27;;;2.40;;
53391;SDS011;41667;51.922;8.850;2023-05-16T07:10:07;9.52;;;2.03;;
53391;SDS011;41667;51.922;8.850;2023-05-16T07:12:34;5.65;;;1.70;;
53391;SDS011;41667;51.922;8.850;2023-05-16T07:14:59;7.45;;;1.35;;
53391;SDS011;41667;51.922;8.850;2023-05-16T07:17:24;5.15;;;1.38;;
53391;SDS011;41667;51.922;8.850;2023-05-16T07:19:49;12.00;;;1.52;;
53391;SDS011;41667;51.922;8.850;2023-05-16T07:22:14;7.10;;;1.52;;
53391;SDS011;41667;51.922;8.850;2023-05-16T07:24:39;5.65;;;1.33;;
53391;SDS011;41667;51.922;8.850;2023-05-16T07:27:05;7.10;;;1.45;;
53391;SDS011;41667;51.922;8.850;2023-05-16T07:29:30;6.22;;;1.48;;
53391;SDS011;41667;51.922;8.850;2023-05-16T07:31:55;4.90;;;1.15;;
53391;SDS011;41667;51.922;8.850;2023-05-16T07:34:21;11.10;;;1.80;;
53391;SDS011;41667;51.922;8.850;2023-05-16T07:36:46;6.85;;;1.60;;
53391;SDS011;41667;51.922;8.850;2023-05-16T07:39:11;2.55;;;1.23;;
53391;SDS011;41667;51.922;8.850;2023-05-16T07:41:36;5.22;;;1.20;;
53391;SDS011;41667;51.922;8.850;2023-05-16T07:44:01;3.35;;;1.13;;
53391;SDS011;41667;51.922;8.850;2023-05-16T07:46:26;3.37;;;0.90;;
53391;SDS011;41667;51.922;8.850;2023-05-16T07:48:52;4.55;;;1.40;;
53391;SDS011;41667;51.922;8.850;2023-05-16T07:51:17;5.22;;;1.45;;
53391;SDS011;41667;51.922;8.850;2023-05-16T07:53:42;2.83;;;1.00;;
53391;SDS011;41667;51.922;8.850;2023-05-16T07:56:07;5.28;;;0.95;;
53391;SDS011;41667;51.922;8.850;2023-05-16T07:58:32;6.25;;;1.20;;
53391;SDS011;41667;51.922;8.850;2023-05-16T08:00:58;2.40;;;0.93;;
53391;SDS011;41667;51.922;8.850;2023-05-16T08:03:23;7.43;;;2.43;;
53391;SDS011;41667;51.922;8.850;2023-05-16T08:05:48;3.50;;;0.85;;
53391;SDS011;41667;51.922;8.850;2023-05-16T08:08:13;8.55;;;0.90;;
53391;SDS011;41667;51.922;8.850;2023-05-16T08:10:38;3.58;;;1.30;;
53391;SDS011;41667;51.922;8.850;2023-05-16T08:13:04;5.50;;;1.20;;
53391;SDS011;41667;51.922;8.850;2023-05-16T08:15:29;6.33;;;1.77;;
53391;SDS011;41667;51.922;8.850;2023-05-16T08:17:56;3.07;;;0.90;;
53391;SDS011;41667;51.922;8.850;2023-05-16T08:20:21;4.90;;;1.35;;
53391;SDS011;41667;51.922;8.850;2023-05-16T08:22:46;9.38;;;1.27;;
53391;SDS011;41667;51.922;8.850;2023-05-16T08:25:11;5.32;;;1.38;;
53391;SDS011;41667;51.922;8.850;2023-05-16T08:27:37;3.85;;;1.10;;
53391;SDS011;41667;51.922;8.850;2023-05-16T08:30:02;5.90;;;1.23;;
53391;SDS011;41667;51.922;8.850;2023-05-16T08:32:27;1.05;;;0.70;;
53391;SDS011;41667;51.922;8.850;2023-05-16T08:34:52;4.57;;;1.20;;
53391;SDS011;41667;51.922;8.850;2023-05-16T08:37:18;4.70;;;1.02;;
53391;SDS011;41667;51.922;8.850;2023-05-16T08:39:43;5.10;;;1.17;;
53391;SDS011;41667;51.922;8.850;2023-05-16T08:42:08;7.22;;;1.60;;
53391;SDS011;41667;51.922;8.850;2023-05-16T08:44:33;4.07;;;1.20;;
53391;SDS011;41667;51.922;8.850;2023-05-16T08:46:59;2.78;;;0.90;;
53391;SDS011;41667;51.922;8.850;2023-05-16T08:49:27;4.82;;;0.90;;
53391;SDS011;41667;51.922;8.850;2023-05-16T08:51:55;2.60;;;0.88;;
53391;SDS011;41667;51.922;8.850;2023-05-16T08:54:20;2.05;;;1.20;;
53391;SDS011;41667;51.922;8.850;2023-05-16T08:56:46;7.30;;;1.60;;
53391;SDS011;41667;51.922;8.850;2023-05-16T08:59:14;6.45;;;1.45;;
53391;SDS011;41667;51.922;8.850;2023-05-16T09:01:39;6.50;;;1.30;;
53391;SDS011;41667;51.922;8.850;2023-05-16T09:04:06;5.35;;;1.42;;
53391;SDS011;41667;51.922;8.850;2023-05-16T09:06:32;2.33;;;1.42;;
53391;SDS011;41667;51.922;8.850;2023-05-16T09:08:57;8.10;;;1.67;;
53391;SDS011;41667;51.922;8.850;2023-05-16T09:11:22;3.90;;;1.60;;
53391;SDS011;41667;51.922;8.850;2023-05-16T09:13:48;4.00;;;0.70;;
53391;SDS011;41667;51.922;8.850;2023-05-16T09:16:14;4.45;;;1.35;;
53391;SDS011;41667;51.922;8.850;2023-05-16T09:18:40;1.63;;;1.08;;
53391;SDS011;41667;51.922;8.850;2023-05-16T09:21:06;1.98;;;0.93;;
53391;SDS011;41667;51.922;8.850;2023-05-16T09:23:32;3.80;;;1.10;;
53391;SDS011;41667;51.922;8.850;2023-05-16T09:25:58;3.10;;;1.17;;
53391;SDS011;41667;51.922;8.850;2023-05-16T09:28:27;1.90;;;0.90;;
53391;SDS011;41667;51.922;8.850;2023-05-16T09:30:52;7.75;;;1.42;;
53391;SDS011;41667;51.922;8.850;2023-05-16T09:33:19;4.65;;;1.38;;
53391;SDS011;41667;51.922;8.850;2023-05-16T09:35:46;5.53;;;1.02;;
53391;SDS011;41667;51.922;8.850;2023-05-16T09:38:14;7.32;;;1.60;;
53391;SDS011;41667;51.922;8.850;2023-05-16T09:40:40;1.15;;;0.55;;
53391;SDS011;41667;51.922;8.850;2023-05-16T09:43:08;3.70;;;1.08;;
53391;SDS011;41667;51.922;8.850;2023-05-16T09:45:34;3.40;;;1.00;;
53391;SDS011;41667;51.922;8.850;2023-05-16T09:48:06;3.35;;;1.10;;
53391;SDS011;41667;51.922;8.850;2023-05-16T09:50:32;9.77;;;0.95;;
53391;SDS011;41667;51.922;8.850;2023-05-16T09:52:58;4.28;;;1.05;;
53391;SDS011;41667;51.922;8.850;2023-05-16T09:55:23;3.72;;;0.85;;
53391;SDS011;41667;51.922;8.850;2023-05-16T09:57:48;3.42;;;0.80;;
53391;SDS011;41667;51.922;8.850;2023-05-16T10:00:14;4.75;;;1.20;;
53391;SDS011;41667;51.922;8.850;2023-05-16T10:02:39;2.97;;;0.88;;
53391;SDS011;41667;51.922;8.850;2023-05-16T10:05:05;2.97;;;0.85;;
53391;SDS011;41667;51.922;8.850;2023-05-16T10:07:30;2.75;;;0.95;;
53391;SDS011;41667;51.922;8.850;2023-05-16T10:09:59;7.60;;;1.17;;
53391;SDS011;41667;51.922;8.850;2023-05-16T10:12:29;5.03;;;0.80;;
53391;SDS011;41667;51.922;8.850;2023-05-16T10:14:55;3.42;;;1.02;;
53391;SDS011;41667;51.922;8.850;2023-05-16T10:17:21;3.72;;;1.17;;
53391;SDS011;41667;51.922;8.850;2023-05-16T10:19:46;3.13;;;0.90;;
53391;SDS011;41667;51.922;8.850;2023-05-16T10:22:12;1.98;;;0.90;;
53391;SDS011;41667;51.922;8.850;2023-05-16T10:24:40;2.00;;;0.90;;
53391;SDS011;41667;51.922;8.850;2023-05-16T10:27:07;1.13;;;0.60;;
53391;SDS011;41667;51.922;8.850;2023-05-16T10:29:33;3.55;;;0.98;;
53391;SDS011;41667;51.922;8.850;2023-05-16T10:31:58;2.67;;;0.85;;
53391;SDS011;41667;51.922;8.850;2023-05-16T10:34:24;5.07;;;0.85;;
53391;SDS011;41667;51.922;8.850;2023-05-16T10:36:49;2.30;;;0.70;;
53391;SDS011;41667;51.922;8.850;2023-05-16T10:39:14;2.47;;;1.00;;
53391;SDS011;41667;51.922;8.850;2023-05-16T10:41:40;0.93;;;0.70;;
53391;SDS011;41667;51.922;8.850;2023-05-16T10:44:12;3.08;;;1.17;;
53391;SDS011;41667;51.922;8.850;2023-05-16T10:46:37;7.33;;;0.80;;
53391;SDS011;41667;51.922;8.850;2023-05-16T10:49:18;1.80;;;0.73;;
53391;SDS011;41667;51.922;8.850;2023-05-16T10:51:43;6.43;;;1.45;;
53391;SDS011;41667;51.922;8.850;2023-05-16T10:54:09;4.25;;;0.90;;
53391;SDS011;41667;51.922;8.850;2023-05-16T10:56:34;3.00;;;0.82;;
53391;SDS011;41667;51.922;8.850;2023-05-16T10:59:00;4.28;;;0.90;;
53391;SDS011;41667;51.922;8.850;2023-05-16T11:01:29;2.08;;;0.88;;
53391;SDS011;41667;51.922;8.850;2023-05-16T11:06:29;3.10;;;0.77;;
53391;SDS011;41667;51.922;8.850;2023-05-16T11:14:25;3.13;;;1.02;;
53391;SDS011;41667;51.922;8.850;2023-05-16T11:16:51;3.75;;;0.90;;
53391;SDS011;41667;51.922;8.850;2023-05-16T11:19:33;3.00;;;1.10;;
53391;SDS011;41667;51.922;8.850;2023-05-16T11:22:08;2.70;;;0.75;;
53391;SDS011;41667;51.922;8.850;2023-05-16T11:24:34;2.40;;;0.73;;
53391;SDS011;41667;51.922;8.850;2023-05-16T11:27:00;2.47;;;0.50;;
53391;SDS011;41667;51.922;8.850;2023-05-16T11:29:35;5.00;;;0.85;;
53391;SDS011;41667;51.922;8.850;2023-05-16T11:32:02;2.28;;;0.68;;
53391;SDS011;41667;51.922;8.850;2023-05-16T11:34:28;2.85;;;0.60;;
53391;SDS011;41667;51.922;8.850;2023-05-16T11:36:53;1.20;;;0.80;;
53391;SDS011;41667;51.922;8.850;2023-05-16T11:39:20;2.70;;;1.23;;
53391;SDS011;41667;51.922;8.850;2023-05-16T11:41:45;3.42;;;2.05;;
53391;SDS011;41667;51.922;8.850;2023-05-16T11:44:11;2.00;;;0.90;;
53391;SDS011;41667;51.922;8.850;2023-05-16T11:46:37;4.70;;;0.70;;
53391;SDS011;41667;51.922;8.850;2023-05-16T11:49:03;3.35;;;1.20;;
53391;SDS011;41667;51.922;8.850;2023-05-16T11:51:28;6.50;;;1.30;;
53391;SDS011;41667;51.922;8.850;2023-05-16T11:53:53;5.93;;;1.42;;
53391;SDS011;41667;51.922;8.850;2023-05-16T11:56:19;2.23;;;0.80;;
53391;SDS011;41667;51.922;8.850;2023-05-16T11:58:46;4.20;;;1.05;;
53391;SDS011;41667;51.922;8.850;2023-05-16T12:01:11;6.03;;;1.25;;
53391;SDS011;41667;51.922;8.850;2023-05-16T12:03:36;2.50;;;0.60;;
53391;SDS011;41667;51.922;8.850;2023-05-16T12:06:02;3.15;;;0.80;;
53391;SDS011;41667;51.922;8.850;2023-05-16T12:08:28;5.25;;;1.17;;
53391;SDS011;41667;51.922;8.850;2023-05-16T12:10:53;1.63;;;0.73;;
53391;SDS011;41667;51.922;8.850;2023-05-16T12:13:19;3.28;;;0.90;;
53391;SDS011;41667;51.922;8.850;2023-05-16T12:15:44;3.25;;;1.10;;
53391;SDS011;41667;51.922;8.850;2023-05-16T12:18:10;4.53;;;1.25;;
53391;SDS011;41667;51.922;8.850;2023-05-16T12:20:35;2.88;;;0.80;;
53391;SDS011;41667;51.922;8.850;2023-05-16T12:23:00;4.95;;;1.00;;
53391;SDS011;41667;51.922;8.850;2023-05-16T12:25:29;3.37;;;0.83;;
53391;SDS011;41667;51.922;8.850;2023-05-16T12:28:01;3.47;;;1.10;;
53391;SDS011;41667;51.922;8.850;2023-05-16T12:30:28;3.15;;;0.90;;
53391;SDS011;41667;51.922;8.850;2023-05-16T12:32:54;1.85;;;0.88;;
53391;SDS011;41667;51.922;8.850;2023-05-16T12:35:20;3.40;;;0.60;;
53391;SDS011;41667;51.922;8.850;2023-05-16T12:37:45;3.92;;;0.93;;
53391;SDS011;41667;51.922;8.850;2023-05-16T12:40:11;6.88;;;0.93;;
53391;SDS011;41667;51.922;8.850;2023-05-16T12:42:37;2.13;;;0.80;;
53391;SDS011;41667;51.922;8.850;2023-05-16T12:45:02;5.78;;;1.10;;
53391;SDS011;41667;51.922;8.850;2023-05-16T12:47:35;4.40;;;0.70;;
53391;SDS011;41667;51.922;8.850;2023-05-16T12:50:01;6.13;;;1.10;;
53391;SDS011;41667;51.922;8.850;2023-05-16T12:52:27;3.37;;;0.70;;
53391;SDS011;41667;51.922;8.850;2023-05-16T12:54:52;2.10;;;0.68;;
53391;SDS011;41667;51.922;8.850;2023-05-16T12:57:18;3.95;;;0.77;;
53391;SDS011;41667;51.922;8.850;2023-05-16T12:59:43;1.08;;;0.70;;
53391;SDS011;41667;51.922;8.850;2023-05-16T13:02:09;1.77;;;1.60;;
53391;SDS011;41667;51.922;8.850;2023-05-16T13:04:34;2.70;;;1.02;;
53391;SDS011;41667;51.922;8.850;2023-05-16T13:07:00;3.65;;;1.55;;
53391;SDS011;41667;51.922;8.850;2023-05-16T13:09:26;3.17;;;0.60;;
53391;SDS011;41667;51.922;8.850;2023-05-16T13:11:51;1.93;;;0.90;;
53391;SDS011;41667;51.922;8.850;2023-05-16T13:14:17;0.70;;;0.70;;
53391;SDS011;41667;51.922;8.850;2023-05-16T13:16:42;2.90;;;0.80;;
53391;SDS011;41667;51.922;8.850;2023-05-16T13:19:08;5.25;;;1.02;;
53391;SDS011;41667;51.922;8.850;2023-05-16T13:21:33;2.72;;;0.75;;
53391;SDS011;41667;51.922;8.850;2023-05-16T13:23:59;1.40;;;0.80;;
53391;SDS011;41667;51.922;8.850;2023-05-16T13:26:24;3.22;;;0.85;;
53391;SDS011;41667;51.922;8.850;2023-05-16T13:28:50;0.85;;;0.63;;
53391;SDS011;41667;51.922;8.850;2023-05-16T13:31:17;3.45;;;0.93;;
53391;SDS011;41667;51.922;8.850;2023-05-16T13:33:42;1.38;;;0.70;;
53391;SDS011;41667;51.922;8.850;2023-05-16T13:36:07;4.13;;;1.00;;
53391;SDS011;41667;51.922;8.850;2023-05-16T13:38:32;2.85;;;0.90;;
53391;SDS011;41667;51.922;8.850;2023-05-16T13:40:57;3.10;;;1.05;;
53391;SDS011;41667;51.922;8.850;2023-05-16T13:43:24;2.25;;;0.93;;
53391;SDS011;41667;51.922;8.850;2023-05-16T13:45:49;2.28;;;1.13;;
53391;SDS011;41667;51.922;8.850;2023-05-16T13:48:14;2.58;;;1.10;;
53391;SDS011;41667;51.922;8.850;2023-05-16T13:50:40;1.83;;;0.67;;
53391;SDS011;41667;51.922;8.850;2023-05-16T13:53:06;1.63;;;0.75;;
53391;SDS011;41667;51.922;8.850;2023-05-16T13:55:31;2.13;;;0.80;;
53391;SDS011;41667;51.922;8.850;2023-05-16T13:57:56;0.95;;;0.82;;
53391;SDS011;41667;51.922;8.850;2023-05-16T14:00:21;2.43;;;1.07;;
53391;SDS011;41667;51.922;8.850;2023-05-16T14:02:46;5.87;;;0.77;;
53391;SDS011;41667;51.922;8.850;2023-05-16T14:05:12;5.93;;;1.42;;
53391;SDS011;41667;51.922;8.850;2023-05-16T14:07:37;1.67;;;0.80;;
53391;SDS011;41667;51.922;8.850;2023-05-16T14:10:02;1.67;;;0.80;;
53391;SDS011;41667;51.922;8.850;2023-05-16T14:12:28;3.10;;;0.70;;
53391;SDS011;41667;51.922;8.850;2023-05-16T14:14:53;2.73;;;0.57;;
53391;SDS011;41667;51.922;8.850;2023-05-16T14:17:18;1.48;;;0.70;;
53391;SDS011;41667;51.922;8.850;2023-05-16T14:19:43;3.87;;;0.93;;
53391;SDS011;41667;51.922;8.850;2023-05-16T14:22:09;4.07;;;0.60;;
53391;SDS011;41667;51.922;8.850;2023-05-16T14:24:35;2.03;;;1.45;;
53391;SDS011;41667;51.922;8.850;2023-05-16T14:27:00;1.40;;;0.50;;
53391;SDS011;41667;51.922;8.850;2023-05-16T14:29:25;4.40;;;1.05;;
53391;SDS011;41667;51.922;8.850;2023-05-16T14:31:51;0.57;;;0.57;;
53391;SDS011;41667;51.922;8.850;2023-05-16T14:34:16;2.70;;;0.80;;
53391;SDS011;41667;51.922;8.850;2023-05-16T14:36:41;2.55;;;0.80;;
53391;SDS011;41667;51.922;8.850;2023-05-16T14:39:07;5.47;;;1.17;;
53391;SDS011;41667;51.922;8.850;2023-05-16T14:41:33;2.63;;;0.80;;
53391;SDS011;41667;51.922;8.850;2023-05-16T14:43:58;1.50;;;0.85;;
53391;SDS011;41667;51.922;8.850;2023-05-16T14:46:23;3.33;;;0.80;;
53391;SDS011;41667;51.922;8.850;2023-05-16T14:48:48;1.13;;;1.13;;
53391;SDS011;41667;51.922;8.850;2023-05-16T14:51:13;0.85;;;0.52;;
53391;SDS011;41667;51.922;8.850;2023-05-16T14:53:39;0.50;;;0.50;;